KWYS/WYS METAR and TAF weather

Enter ICAO airport designator
Station Type Date Time Source
KWYS METAR 2022/10/19 16:00 UTC NOAA

KWYS 191600Z AUTO 00000KT 10SM CLR 02/M04 A3050 RMK AO2


Station Type Date Time Source
KWYS Decoded METAR 2022/10/19 16:00 UTC NOAA

West Yellowstone, MT, United States (KWYS) 44-41N 111-07W
Oct 19, 2022 - 12:00 PM EDT / 2022.10.19 1600 UTC
Wind: Calm:0
Visibility: 10 mile(s):0
Sky conditions: clear
Temperature: 35 F (2 C)
Dew Point: 24 F (-4 C)
Relative Humidity: 64%
Pressure (altimeter): 30.5 in. Hg (1032 hPa)
ob: KWYS 191600Z AUTO 00000KT 10SM CLR 02/M04 A3050 RMK AO2
cycle: 16

Station Type Date Time Source
KWYS TAF 2022/10/20 12:20 UTC NOAA

TAF KWYS 201120Z 2012/2112 VRB03KT P6SM SKC
FM202000 22012G20KT P6SM FEW250
FM210200 VRB06KT P6SM BKN150
AMD NOT SKED

Example: see airport list